Time;durP1;ratioP1;P1;durP2;ratioP2;P2;SDS_P1;SDS_P2;PMS_P1;PMS_P2;Temp;Humidity;BMP_temperature;BMP_pressure;BME280_temperature;BME280_humidity;BME280_pressure;Samples;Min_cycle;Max_cycle;Signal;HPM_P1;HPM_P2
2024/01/21 00:02:05;;;;;;;11.88;7.97;;;;;;;-16.93;90.04;101863.31;10317519;28;20565;-64
2024/01/21 00:07:08;;;;;;;17.92;8.70;;;;;;;-16.96;90.03;101866.09;10316336;28;20051;-64
2024/01/21 00:12:11;;;;;;;18.60;8.77;;;;;;;-16.74;90.66;101865.88;10316482;28;20548;-65
2024/01/21 00:17:14;;;;;;;19.08;10.02;;;;;;;-16.69;90.67;101887.50;10316203;28;20051;-64
2024/01/21 00:22:17;;;;;;;18.55;9.48;;;;;;;-16.61;89.90;101890.56;10282506;28;20043;-64
2024/01/21 00:27:19;;;;;;;20.70;10.50;;;;;;;-16.70;90.01;101891.06;10305283;28;20046;-64
2024/01/21 00:32:22;;;;;;;30.98;11.70;;;;;;;-16.83;89.03;101896.91;10301249;28;20418;-63
2024/01/21 00:37:25;;;;;;;23.00;10.30;;;;;;;-16.84;88.92;101905.69;10317564;28;20045;-64
2024/01/21 00:42:27;;;;;;;18.52;8.80;;;;;;;-16.86;89.68;101910.16;10316820;28;20030;-64
2024/01/21 00:47:30;;;;;;;17.77;8.20;;;;;;;-16.94;89.89;101917.59;10316947;28;20042;-64
2024/01/21 00:52:32;;;;;;;20.65;8.70;;;;;;;-17.15;90.50;101911.59;10321479;28;20046;-64
2024/01/21 00:57:36;;;;;;;14.80;6.65;;;;;;;-17.25;91.68;101906.84;10314232;28;20049;-64
2024/01/21 01:02:39;;;;;;;14.55;7.35;;;;;;;-17.19;92.28;101922.28;10324539;28;20050;-64
2024/01/21 01:07:42;;;;;;;12.52;6.65;;;;;;;-17.32;93.00;101939.53;10323775;28;20059;-64
2024/01/21 01:12:44;;;;;;;14.35;7.32;;;;;;;-17.32;92.92;101956.13;10324291;28;20046;-64
2024/01/21 01:17:51;;;;;;;18.92;9.45;;;;;;;-17.38;93.48;101951.13;10323853;28;20046;-64
2024/01/21 01:22:53;;;;;;;27.73;11.70;;;;;;;-17.30;92.76;101950.81;10325061;28;20049;-64
2024/01/21 01:27:56;;;;;;;27.70;11.63;;;;;;;-17.23;92.49;101960.06;10323808;28;20046;-64
2024/01/21 01:32:58;;;;;;;23.35;10.63;;;;;;;-17.13;93.02;101966.63;10324040;28;20037;-64
2024/01/21 01:38:01;;;;;;;23.95;9.85;;;;;;;-17.19;93.02;101980.84;10306928;28;20043;-63
2024/01/21 01:43:04;;;;;;;23.65;9.05;;;;;;;-17.23;93.20;101981.06;10322769;28;20050;-63
2024/01/21 01:48:07;;;;;;;25.30;9.43;;;;;;;-17.14;93.06;101993.78;10323818;28;20105;-63
2024/01/21 01:53:09;;;;;;;19.98;9.48;;;;;;;-17.22;92.69;101988.88;10307128;28;20368;-63
2024/01/21 01:58:14;;;;;;;21.67;9.00;;;;;;;-17.35;93.15;101998.22;10321955;28;20557;-63
2024/01/21 02:03:18;;;;;;;18.33;8.45;;;;;;;-17.23;93.43;102007.31;10306150;28;20042;-63
2024/01/21 02:08:20;;;;;;;22.73;8.68;;;;;;;-17.13;93.12;102011.22;10305693;28;20073;-63
2024/01/21 02:13:23;;;;;;;22.20;8.57;;;;;;;-17.07;93.64;102000.44;10315351;28;20562;-64
2024/01/21 02:18:25;;;;;;;22.90;10.32;;;;;;;-17.01;93.34;101994.88;10321694;28;20031;-63
2024/01/21 02:23:27;;;;;;;27.17;10.25;;;;;;;-16.95;93.19;101988.53;10321978;28;20035;-63
2024/01/21 02:28:30;;;;;;;27.13;8.77;;;;;;;-16.93;93.02;101982.28;10321752;28;20042;-63
2024/01/21 02:33:32;;;;;;;32.08;9.23;;;;;;;-16.92;92.52;101975.25;10319065;28;20621;-64
2024/01/21 02:38:34;;;;;;;20.02;8.60;;;;;;;-16.72;92.33;101984.81;10320506;28;20041;-64
2024/01/21 02:43:38;;;;;;;24.35;8.77;;;;;;;-16.53;92.12;101980.31;10319120;28;20050;-64
2024/01/21 02:48:40;;;;;;;25.60;9.10;;;;;;;-16.46;92.57;101985.22;10300863;28;20031;-64
2024/01/21 02:53:43;;;;;;;26.98;8.85;;;;;;;-16.32;92.61;101992.41;10321788;28;20039;-65
2024/01/21 02:58:49;;;;;;;23.35;9.02;;;;;;;-16.46;92.49;101994.88;10269314;28;20403;-64
2024/01/21 03:03:52;;;;;;;21.20;8.32;;;;;;;-16.54;91.70;101992.59;10274697;28;20077;-64
2024/01/21 03:08:54;;;;;;;28.70;9.75;;;;;;;-16.54;92.28;102002.25;10313074;28;20709;-64
2024/01/21 03:13:59;;;;;;;23.42;9.48;;;;;;;-16.35;91.57;102015.34;10310871;28;20042;-64
2024/01/21 03:19:05;;;;;;;25.55;9.85;;;;;;;-16.19;91.18;102030.28;10297486;28;20045;-64
2024/01/21 03:24:08;;;;;;;28.90;9.95;;;;;;;-16.35;91.84;102026.72;10268772;28;20578;-64
2024/01/21 03:29:10;;;;;;;29.45;10.07;;;;;;;-16.33;91.50;102027.50;10321277;28;20050;-63
2024/01/21 03:34:12;;;;;;;27.30;10.20;;;;;;;-16.26;91.27;102028.91;10305079;28;20042;-64
2024/01/21 03:39:15;;;;;;;32.10;11.32;;;;;;;-16.35;91.88;102015.34;10320033;28;20049;-63
2024/01/21 03:44:17;;;;;;;25.95;10.27;;;;;;;-16.17;91.76;102024.97;10322091;28;20097;-64
2024/01/21 03:49:20;;;;;;;29.38;11.48;;;;;;;-16.00;91.93;102030.22;10302694;28;20534;-64
2024/01/21 03:54:22;;;;;;;26.38;9.40;;;;;;;-15.83;91.40;102045.16;10304121;28;20049;-63
2024/01/21 03:59:25;;;;;;;26.90;9.68;;;;;;;-15.63;92.37;102054.66;10303336;28;20026;-63
2024/01/21 04:04:27;;;;;;;24.55;10.00;;;;;;;-15.67;92.31;102061.88;10303492;28;20051;-64
2024/01/21 04:09:31;;;;;;;26.98;10.00;;;;;;;-15.71;92.03;102062.97;10318904;28;20034;-63
2024/01/21 04:14:33;;;;;;;27.15;9.75;;;;;;;-15.68;92.63;102073.31;10321148;28;20217;-64
2024/01/21 04:19:35;;;;;;;25.50;10.27;;;;;;;-15.70;92.02;102090.97;10318903;28;20035;-63
2024/01/21 04:24:38;;;;;;;26.98;10.38;;;;;;;-15.66;92.07;102095.13;10320270;28;20038;-63
2024/01/21 04:29:40;;;;;;;25.77;10.75;;;;;;;-15.56;92.43;102093.72;10319407;28;20674;-63
2024/01/21 04:34:43;;;;;;;27.98;11.05;;;;;;;-15.45;92.86;102100.19;10303282;28;20046;-63
2024/01/21 04:39:45;;;;;;;34.13;11.25;;;;;;;-15.35;92.48;102080.41;10316211;28;20037;-65
2024/01/21 04:44:48;;;;;;;26.42;10.43;;;;;;;-15.24;92.79;102083.31;10303079;28;20046;-62
2024/01/21 04:49:50;;;;;;;26.08;10.63;;;;;;;-15.18;92.80;102087.41;10302413;28;20468;-62
2024/01/21 04:54:53;;;;;;;22.77;9.70;;;;;;;-14.93;92.75;102083.38;10302684;28;20042;-63
2024/01/21 04:59:55;;;;;;;27.05;11.10;;;;;;;-14.78;92.82;102089.63;10285188;28;20042;-64
2024/01/21 05:04:58;;;;;;;19.40;10.23;;;;;;;-14.70;92.68;102090.06;10285476;28;20054;-63
2024/01/21 05:10:00;;;;;;;25.88;10.70;;;;;;;-14.69;92.78;102080.38;10306336;28;20034;-63
2024/01/21 05:15:03;;;;;;;29.92;11.05;;;;;;;-14.62;92.08;102089.63;10318805;28;20045;-64
2024/01/21 05:20:08;;;;;;;25.10;11.30;;;;;;;-14.58;92.64;102091.16;10318437;28;20054;-63
2024/01/21 05:25:11;;;;;;;20.60;9.63;;;;;;;-14.44;92.76;102082.50;10317310;28;20042;-63
2024/01/21 05:30:15;;;;;;;20.05;9.43;;;;;;;-14.26;92.95;102080.59;10313596;28;20061;-64
2024/01/21 05:35:18;;;;;;;16.30;8.48;;;;;;;-14.13;92.41;102073.69;10301753;28;20034;-63
2024/01/21 05:40:21;;;;;;;13.38;7.07;;;;;;;-14.00;93.19;102077.34;10325429;28;20045;-63
2024/01/21 05:45:24;;;;;;;17.45;8.23;;;;;;;-13.89;93.16;102077.56;10325980;28;20042;-63
2024/01/21 05:50:26;;;;;;;14.55;7.65;;;;;;;-13.76;92.77;102081.19;10324846;28;20038;-64
2024/01/21 05:55:28;;;;;;;14.57;8.30;;;;;;;-13.59;92.56;102074.09;10326543;28;20507;-64
2024/01/21 06:00:31;;;;;;;15.93;8.95;;;;;;;-13.54;92.31;102082.56;10324487;28;20038;-62
2024/01/21 06:05:33;;;;;;;20.83;9.77;;;;;;;-13.46;92.77;102080.34;10324398;28;20051;-63
2024/01/21 06:10:36;;;;;;;20.00;9.63;;;;;;;-13.37;92.40;102094.78;10324996;28;20054;-64
2024/01/21 06:15:38;;;;;;;15.38;9.05;;;;;;;-13.29;92.24;102089.91;10324476;28;20510;-63
2024/01/21 06:20:40;;;;;;;13.63;8.80;;;;;;;-13.33;92.48;102104.25;10324101;28;20035;-63
2024/01/21 06:25:43;;;;;;;15.65;9.35;;;;;;;-13.26;92.51;102097.63;10323811;28;20038;-63
2024/01/21 06:30:46;;;;;;;16.75;9.55;;;;;;;-13.16;92.07;102093.47;10325044;28;20057;-64
2024/01/21 06:35:48;;;;;;;18.40;10.38;;;;;;;-12.96;92.78;102079.06;10292833;28;20065;-63
2024/01/21 06:40:51;;;;;;;22.50;10.40;;;;;;;-12.84;92.17;102083.56;10325599;28;20410;-64
2024/01/21 06:45:54;;;;;;;19.15;10.35;;;;;;;-12.62;92.24;102062.81;10323762;28;20038;-63
2024/01/21 06:50:56;;;;;;;19.02;9.65;;;;;;;-12.47;92.43;102066.28;10304578;28;20035;-64
2024/01/21 06:56:04;;;;;;;18.92;9.80;;;;;;;-12.29;91.74;102066.88;10305535;28;20042;-63
2024/01/21 07:01:07;;;;;;;18.30;9.25;;;;;;;-12.18;91.99;102073.16;10320832;28;20050;-64
2024/01/21 07:06:09;;;;;;;17.65;9.45;;;;;;;-12.02;92.48;102075.66;10322276;28;20062;-64
2024/01/21 07:11:12;;;;;;;17.52;9.15;;;;;;;-11.92;91.72;102074.13;10302097;28;20506;-64
2024/01/21 07:16:14;;;;;;;22.52;9.85;;;;;;;-11.78;92.57;102077.66;10306241;28;20061;-64
2024/01/21 07:21:17;;;;;;;22.85;11.50;;;;;;;-11.65;92.33;102078.50;10320126;28;20426;-63
2024/01/21 07:26:22;;;;;;;21.08;10.63;;;;;;;-11.68;92.46;102086.66;10321324;28;20050;-63
2024/01/21 07:31:24;;;;;;;17.83;10.40;;;;;;;-11.68;92.52;102076.91;10304934;28;20042;-63
2024/01/21 07:36:27;;;;;;;17.42;10.40;;;;;;;-11.69;91.97;102072.56;10320596;28;20039;-64
2024/01/21 07:41:31;;;;;;;23.42;11.80;;;;;;;-11.63;91.55;102080.09;10323727;28;20034;-63
2024/01/21 07:46:33;;;;;;;20.58;11.35;;;;;;;-11.56;91.76;102073.44;10319964;28;20046;-63
2024/01/21 07:51:36;;;;;;;17.02;10.25;;;;;;;-11.53;91.35;102063.59;10318942;28;20038;-64
2024/01/21 07:56:38;;;;;;;18.15;9.50;;;;;;;-11.49;91.24;102075.66;10320902;28;20039;-64
2024/01/21 08:01:41;;;;;;;15.35;9.43;;;;;;;-11.51;91.34;102061.69;10302612;28;20042;-64
2024/01/21 08:06:44;;;;;;;20.98;9.60;;;;;;;-11.43;91.17;102070.81;10318148;28;20058;-63
2024/01/21 08:11:48;;;;;;;12.77;8.30;;;;;;;-11.32;91.42;102073.56;10320827;28;20046;-64
2024/01/21 08:16:50;;;;;;;15.35;7.90;;;;;;;-11.26;91.62;102061.72;10317275;28;20042;-62
2024/01/21 08:21:52;;;;;;;16.73;7.43;;;;;;;-11.23;90.96;102060.66;10295908;28;20553;-63
2024/01/21 08:26:57;;;;;;;11.98;6.85;;;;;;;-11.13;91.65;102046.66;10318223;28;20039;-62
2024/01/21 08:32:02;;;;;;;12.82;6.72;;;;;;;-11.01;91.10;102063.53;10317168;28;20034;-62
2024/01/21 08:37:05;;;;;;;12.40;6.85;;;;;;;-10.56;90.71;102050.63;10316956;28;20042;-64
2024/01/21 08:42:08;;;;;;;12.02;6.80;;;;;;;-9.76;88.82;102049.09;10297772;28;20507;-64
2024/01/21 08:47:10;;;;;;;11.52;6.20;;;;;;;-9.68;86.65;102065.31;10301743;28;20035;-64
2024/01/21 08:52:13;;;;;;;12.48;6.38;;;;;;;-9.88;86.30;102048.22;10303545;28;20043;-63
2024/01/21 08:57:15;;;;;;;14.55;6.10;;;;;;;-10.02;85.90;102050.19;10320455;28;20045;-64
2024/01/21 09:02:18;;;;;;;10.70;6.00;;;;;;;-10.36;86.31;102052.69;10314205;28;20038;-66
2024/01/21 09:07:21;;;;;;;9.98;5.57;;;;;;;-10.26;86.04;102051.06;10317621;28;20138;-67
2024/01/21 09:12:23;;;;;;;11.75;7.10;;;;;;;-10.27;85.62;102059.13;10318851;28;20410;-62
2024/01/21 09:17:26;;;;;;;13.00;6.07;;;;;;;-10.16;86.40;102059.16;10323323;28;20038;-63
2024/01/21 09:22:28;;;;;;;15.23;7.25;;;;;;;-10.25;86.33;102063.34;10322550;28;20046;-64
2024/01/21 09:27:31;;;;;;;13.90;7.07;;;;;;;-10.07;85.62;102074.41;10310618;28;20038;-64
2024/01/21 09:32:33;;;;;;;15.45;8.32;;;;;;;-10.00;85.31;102080.13;10334516;28;20027;-64
2024/01/21 09:37:35;;;;;;;15.80;8.18;;;;;;;-10.23;85.38;102085.34;10331041;28;20050;-63
2024/01/21 09:42:39;;;;;;;19.45;7.95;;;;;;;-10.44;84.66;102105.44;10310128;28;20067;-65
2024/01/21 09:47:42;;;;;;;15.95;8.63;;;;;;;-10.87;86.11;102097.88;10304025;28;20046;-67
2024/01/21 09:52:45;;;;;;;16.98;8.90;;;;;;;-10.95;84.97;102114.28;10329147;28;20042;-65
2024/01/21 09:57:47;;;;;;;17.90;7.00;;;;;;;-11.10;85.23;102109.22;10339041;28;20042;-68
2024/01/21 10:02:50;;;;;;;12.27;5.93;;;;;;;-11.13;85.32;102110.25;10311601;28;20042;-69
2024/01/21 10:07:53;;;;;;;13.38;6.07;;;;;;;-11.54;84.92;102128.94;10329351;28;20051;-67
2024/01/21 10:12:55;;;;;;;9.88;5.82;;;;;;;-11.71;85.30;102139.81;10302504;28;20742;-67
2024/01/21 10:17:58;;;;;;;12.27;5.97;;;;;;;-11.99;85.27;102146.91;10345295;28;20045;-68
2024/01/21 10:23:10;;;;;;;6.57;3.40;;;;;;;-12.02;84.85;102139.16;10337686;28;20047;-67
2024/01/21 10:28:13;;;;;;;4.72;3.17;;;;;;;-11.92;85.07;102132.34;10325663;28;20042;-67
2024/01/21 10:33:16;;;;;;;7.07;3.70;;;;;;;-12.01;85.06;102117.06;10337128;28;20038;-67
2024/01/21 10:38:18;;;;;;;3.88;2.58;;;;;;;-12.08;84.85;102102.53;10324096;28;20045;-67
2024/01/21 10:43:21;;;;;;;5.57;3.20;;;;;;;-12.41;84.00;102092.31;10304895;28;20038;-65
2024/01/21 10:48:25;;;;;;;4.95;2.20;;;;;;;-12.59;84.75;102096.97;10309451;28;20041;-68
2024/01/21 10:53:28;;;;;;;7.07;2.70;;;;;;;-12.47;84.74;102098.00;10331704;28;20105;-68
2024/01/21 10:58:31;;;;;;;4.03;2.78;;;;;;;-12.39;85.81;102071.06;10278851;28;20038;-65
2024/01/21 11:03:35;;;;;;;2.25;1.30;;;;;;;-12.38;86.60;102062.19;10300079;28;20034;-66
2024/01/21 11:08:42;;;;;;;4.55;3.10;;;;;;;-12.11;87.14;102057.75;10319850;28;20039;-67
2024/01/21 11:13:52;;;;;;;7.53;2.55;;;;;;;-11.89;87.74;102031.56;10302524;28;20035;-64
2024/01/21 11:18:58;;;;;;;6.05;2.70;;;;;;;-11.60;88.85;102031.41;10315424;28;20535;-66
2024/01/21 11:24:05;;;;;;;5.03;2.30;;;;;;;-11.65;89.59;102002.56;10287903;28;20037;-66
2024/01/21 11:29:30;;;;;;;6.35;2.30;;;;;;;-11.54;91.01;101999.19;10304122;28;20039;-68
2024/01/21 11:34:45;;;;;;;3.80;1.75;;;;;;;-11.52;91.92;101993.78;10301786;28;20517;-66
2024/01/21 11:39:49;;;;;;;3.50;2.22;;;;;;;-11.29;92.61;101991.22;10323939;28;20034;-64
2024/01/21 11:45:01;;;;;;;6.50;3.05;;;;;;;-11.14;92.64;101972.56;10303139;28;20042;-68
2024/01/21 11:50:04;;;;;;;7.35;2.78;;;;;;;-11.09;92.91;101962.50;10299438;28;20039;-66
2024/01/21 11:55:07;;;;;;;2.92;1.77;;;;;;;-11.02;93.44;101956.66;10303986;28;20417;-68
2024/01/21 12:00:11;;;;;;;7.00;3.83;;;;;;;-10.93;94.68;101957.81;10328228;28;20047;-68
2024/01/21 12:05:18;;;;;;;8.73;4.50;;;;;;;-10.88;94.72;101947.72;10321688;28;20075;-68
2024/01/21 12:10:20;;;;;;;7.68;3.50;;;;;;;-10.84;94.42;101938.59;10319890;28;20041;-70
2024/01/21 12:15:24;;;;;;;7.70;3.70;;;;;;;-10.97;94.06;101945.72;10334528;28;20065;-71
2024/01/21 12:20:26;;;;;;;8.68;3.72;;;;;;;-10.99;94.65;101926.44;10308329;28;20035;-71
2024/01/21 12:25:30;;;;;;;3.95;2.38;;;;;;;-11.04;93.92;101923.28;10323709;28;20050;-70
2024/01/21 12:30:32;;;;;;;11.13;4.10;;;;;;;-11.08;93.72;101916.50;10333756;28;20042;-71
2024/01/21 12:35:35;;;;;;;10.38;5.13;;;;;;;-11.21;93.13;101910.38;10312214;28;20399;-72
2024/01/21 12:40:38;;;;;;;8.05;5.13;;;;;;;-11.32;92.52;101911.97;10319548;28;20039;-69
2024/01/21 12:45:41;;;;;;;6.63;4.18;;;;;;;-11.47;92.04;101917.50;10319570;28;20042;-70
2024/01/21 12:50:45;;;;;;;14.95;5.45;;;;;;;-11.70;91.44;101913.81;10310542;28;20510;-70
2024/01/21 12:55:47;;;;;;;3.97;2.33;;;;;;;-11.80;92.49;101913.66;10327247;28;20039;-70
2024/01/21 13:00:50;;;;;;;12.93;5.32;;;;;;;-11.80;92.49;101916.31;10302787;28;20039;-70
2024/01/21 13:05:52;;;;;;;9.00;4.47;;;;;;;-11.72;92.76;101905.16;10314594;28;20063;-70
2024/01/21 13:10:55;;;;;;;6.95;4.30;;;;;;;-11.66;92.91;101894.97;10332020;28;20050;-68
2024/01/21 13:16:00;;;;;;;8.18;3.92;;;;;;;-11.70;92.82;101882.91;10325277;28;20038;-69
2024/01/21 13:21:03;;;;;;;7.97;3.35;;;;;;;-11.77;92.66;101886.09;10325095;28;20134;-68
2024/01/21 13:26:06;;;;;;;15.82;4.65;;;;;;;-11.75;92.26;101871.78;10319914;28;20507;-68
2024/01/21 13:31:08;;;;;;;7.80;3.75;;;;;;;-11.77;92.60;101863.13;10325130;28;20030;-68
2024/01/21 13:36:11;;;;;;;6.57;3.58;;;;;;;-11.57;91.77;101864.38;10322909;28;20039;-69
2024/01/21 13:41:13;;;;;;;5.05;3.03;;;;;;;-11.52;92.28;101859.56;10298530;28;20046;-68
2024/01/21 13:46:18;;;;;;;7.60;4.45;;;;;;;-11.46;92.60;101863.59;10311470;28;20069;-70
2024/01/21 13:51:20;;;;;;;5.35;3.60;;;;;;;-11.42;93.11;101860.63;10324830;28;20030;-68
2024/01/21 13:56:23;;;;;;;6.13;3.92;;;;;;;-11.22;93.37;101861.84;10327138;28;20399;-69
2024/01/21 14:01:27;;;;;;;7.60;3.58;;;;;;;-11.12;93.22;101854.06;10328072;28;20031;-68
2024/01/21 14:06:29;;;;;;;5.32;4.10;;;;;;;-11.03;93.50;101856.91;10321116;28;20051;-69
2024/01/21 14:11:31;;;;;;;6.78;4.03;;;;;;;-10.85;93.53;101844.09;10318181;28;20134;-69
2024/01/21 14:16:34;;;;;;;6.85;3.28;;;;;;;-10.71;93.63;101838.63;10322840;28;20049;-68
2024/01/21 14:21:37;;;;;;;5.88;3.33;;;;;;;-10.59;94.37;101822.75;10319566;28;20529;-69
2024/01/21 14:26:40;;;;;;;5.30;3.45;;;;;;;-10.47;94.53;101821.81;10304351;28;21744;-68
2024/01/21 14:31:44;;;;;;;6.25;3.08;;;;;;;-10.31;94.41;101832.97;10318450;28;20632;-68
2024/01/21 14:36:46;;;;;;;4.10;2.67;;;;;;;-10.28;94.77;101823.91;10317875;28;20043;-69
2024/01/21 14:41:49;;;;;;;5.13;2.65;;;;;;;-10.21;94.73;101815.38;10303753;28;20038;-67
2024/01/21 14:46:52;;;;;;;5.20;3.42;;;;;;;-10.19;93.92;101805.47;10320222;28;20050;-68
2024/01/21 14:51:54;;;;;;;5.53;2.75;;;;;;;-10.17;94.41;101794.72;10317164;28;20130;-69
2024/01/21 14:56:57;;;;;;;4.00;2.58;;;;;;;-10.19;93.63;101797.50;10303549;28;20066;-69
2024/01/21 15:02:00;;;;;;;2.22;1.83;;;;;;;-10.12;94.18;101789.91;10288383;28;20038;-69
2024/01/21 15:07:03;;;;;;;3.60;2.17;;;;;;;-10.07;93.71;101801.00;10323116;28;20423;-69
2024/01/21 15:12:06;;;;;;;6.85;3.42;;;;;;;-9.98;94.23;101784.38;10331686;28;20038;-68
2024/01/21 15:17:10;;;;;;;5.50;3.08;;;;;;;-9.90;93.72;101773.13;10339101;28;20034;-68
2024/01/21 15:22:14;;;;;;;12.98;3.22;;;;;;;-9.82;93.79;101760.94;10332535;28;20034;-69
2024/01/21 15:27:17;;;;;;;3.42;2.60;;;;;;;-9.74;93.82;101747.91;10330719;28;20050;-69
2024/01/21 15:32:19;;;;;;;7.00;3.63;;;;;;;-9.72;93.95;101731.84;10320471;28;20043;-69
2024/01/21 15:37:22;;;;;;;1.77;1.65;;;;;;;-9.64;93.47;101734.75;10319747;28;20049;-67
2024/01/21 15:42:24;;;;;;;2.85;2.05;;;;;;;-9.56;93.69;101732.28;10319512;28;20039;-69
2024/01/21 15:47:27;;;;;;;6.07;2.60;;;;;;;-9.39;94.24;101730.06;10301604;28;20047;-68
2024/01/21 15:52:29;;;;;;;7.35;3.17;;;;;;;-9.30;94.49;101732.00;10314968;28;20039;-68
2024/01/21 15:57:32;;;;;;;6.20;2.28;;;;;;;-9.20;94.50;101732.91;10306523;28;20047;-70
2024/01/21 16:02:35;;;;;;;7.13;2.50;;;;;;;-9.09;94.37;101730.22;10324430;28;20039;-70
2024/01/21 16:07:38;;;;;;;7.40;3.30;;;;;;;-8.97;95.05;101720.38;10315674;28;20788;-70
2024/01/21 16:12:42;;;;;;;4.85;2.35;;;;;;;-8.76;95.09;101707.94;10306936;28;20454;-68
2024/01/21 16:17:46;;;;;;;5.65;2.78;;;;;;;-8.51;95.76;101696.03;10326800;28;20046;-68
2024/01/21 16:22:49;;;;;;;1.88;1.33;;;;;;;-8.35;95.42;101701.72;10305393;28;20038;-71
2024/01/21 16:27:51;;;;;;;3.08;1.83;;;;;;;-8.27;95.87;101687.75;10323237;28;20077;-70
2024/01/21 16:32:54;;;;;;;4.00;2.45;;;;;;;-8.13;95.53;101682.06;10332729;28;20046;-69
2024/01/21 16:37:58;;;;;;;5.57;3.10;;;;;;;-7.91;96.01;101670.34;10335180;28;20137;-67
2024/01/21 16:43:01;;;;;;;5.97;1.98;;;;;;;-7.74;96.02;101663.53;10323986;28;20043;-68
2024/01/21 16:48:04;;;;;;;2.25;2.05;;;;;;;-7.60;95.90;101655.97;10330642;28;20085;-68
2024/01/21 16:53:13;;;;;;;2.03;1.45;;;;;;;-7.41;95.71;101644.50;10342853;28;20039;-69
2024/01/21 16:58:17;;;;;;;3.40;2.00;;;;;;;-7.30;96.21;101641.66;10308746;28;20034;-68
2024/01/21 17:03:20;;;;;;;2.85;1.63;;;;;;;-7.20;96.00;101625.69;10318061;28;20042;-68
2024/01/21 17:08:22;;;;;;;4.03;2.25;;;;;;;-7.13;95.05;101632.13;10329704;28;20145;-73
2024/01/21 17:13:25;;;;;;;6.32;2.42;;;;;;;-7.06;95.58;101635.91;10320778;28;20039;-69
2024/01/21 17:18:34;;;;;;;2.60;2.05;;;;;;;-6.99;95.18;101629.00;10320160;28;20035;-69
2024/01/21 17:23:37;;;;;;;3.25;1.50;;;;;;;-6.92;95.36;101628.47;10314073;28;20042;-69
2024/01/21 17:28:41;;;;;;;2.88;1.95;;;;;;;-6.81;94.87;101607.78;10296645;28;20038;-70
2024/01/21 17:33:44;;;;;;;3.15;1.80;;;;;;;-6.72;95.00;101611.41;10304831;28;20047;-69
2024/01/21 17:38:46;;;;;;;2.17;1.77;;;;;;;-6.65;94.92;101601.00;10327351;28;20046;-68
2024/01/21 17:43:49;;;;;;;1.45;1.35;;;;;;;-6.60;94.73;101601.38;10307130;28;20039;-69
2024/01/21 17:48:52;;;;;;;5.35;2.35;;;;;;;-6.54;94.56;101590.13;10328302;28;20047;-69
2024/01/21 17:53:55;;;;;;;2.90;1.50;;;;;;;-6.53;94.53;101598.00;10344008;28;20030;-69
2024/01/21 17:58:57;;;;;;;3.63;1.95;;;;;;;-6.50;94.33;101602.19;10315539;28;20039;-68
2024/01/21 18:04:00;;;;;;;3.78;1.77;;;;;;;-6.48;94.22;101606.41;10323254;28;20055;-68
2024/01/21 18:09:02;;;;;;;2.58;1.55;;;;;;;-6.46;94.17;101592.91;10335784;28;20042;-68
2024/01/21 18:14:06;;;;;;;2.40;1.75;;;;;;;-6.46;94.44;101580.38;10330763;28;20035;-67
2024/01/21 18:19:09;;;;;;;3.63;0.90;;;;;;;-6.44;94.67;101583.75;10337900;28;20038;-68
2024/01/21 18:24:14;;;;;;;2.15;1.33;;;;;;;-6.42;95.64;101573.78;10325469;28;20045;-69
2024/01/21 18:29:17;;;;;;;0.98;0.98;;;;;;;-6.38;95.00;101571.66;10327619;28;20035;-69
2024/01/21 18:34:22;;;;;;;3.42;1.92;;;;;;;-6.33;94.92;101557.84;10323977;28;20041;-68
2024/01/21 18:39:26;;;;;;;2.60;1.60;;;;;;;-6.29;95.15;101556.56;10325809;28;20043;-68
2024/01/21 18:44:31;;;;;;;2.20;1.60;;;;;;;-6.26;95.05;101550.91;10322515;28;20038;-68
2024/01/21 18:49:34;;;;;;;3.20;0.95;;;;;;;-6.18;95.20;101548.34;10322432;28;20047;-66
2024/01/21 18:54:37;;;;;;;2.03;1.25;;;;;;;-6.13;94.99;101538.06;10273053;28;20038;-67
2024/01/21 18:59:43;;;;;;;3.20;1.33;;;;;;;-6.10;94.98;101543.09;10322504;28;20461;-67
2024/01/21 19:04:45;;;;;;;0.77;0.77;;;;;;;-6.03;94.86;101536.16;10325108;28;20055;-66
2024/01/21 19:09:48;;;;;;;3.50;1.63;;;;;;;-5.98;94.38;101533.88;10323055;28;20050;-67
2024/01/21 19:14:50;;;;;;;1.13;0.90;;;;;;;-5.94;94.15;101532.56;10321614;28;20026;-66
2024/01/21 19:19:54;;;;;;;2.42;1.27;;;;;;;-5.92;94.58;101521.72;10321139;28;20506;-66
2024/01/21 19:24:56;;;;;;;2.22;1.42;;;;;;;-5.90;95.09;101517.06;10293141;28;20055;-65
2024/01/21 19:29:59;;;;;;;1.60;1.48;;;;;;;-5.92;94.71;101501.19;10350052;28;20421;-66
2024/01/21 19:35:02;;;;;;;2.00;1.38;;;;;;;-5.93;94.74;101502.19;10322639;28;20038;-67
2024/01/21 19:40:05;;;;;;;3.90;1.83;;;;;;;-5.94;94.84;101495.16;10338976;28;20412;-67
2024/01/21 19:45:08;;;;;;;2.88;1.75;;;;;;;-6.02;95.69;101484.41;10330756;28;20043;-67
2024/01/21 19:50:10;;;;;;;1.00;1.00;;;;;;;-6.05;96.25;101474.03;10314666;28;20509;-66
2024/01/21 19:55:12;;;;;;;1.67;1.45;;;;;;;-6.10;96.85;101470.97;10307019;28;20050;-65
2024/01/21 20:00:16;;;;;;;5.38;1.33;;;;;;;-6.08;97.43;101464.47;10318956;28;20097;-67
2024/01/21 20:05:18;;;;;;;3.17;1.70;;;;;;;-6.01;97.28;101462.03;10320631;28;20074;-66
2024/01/21 20:10:22;;;;;;;3.80;1.60;;;;;;;-5.98;97.02;101464.41;10295237;28;20057;-67
2024/01/21 20:15:24;;;;;;;2.60;1.73;;;;;;;-5.97;96.50;101455.38;10330531;28;20046;-68
2024/01/21 20:20:26;;;;;;;3.58;1.45;;;;;;;-5.92;96.45;101463.78;10302537;28;20047;-69
2024/01/21 20:25:28;;;;;;;3.25;1.88;;;;;;;-5.88;96.42;101459.78;10317218;28;20042;-68
2024/01/21 20:30:31;;;;;;;2.13;1.27;;;;;;;-5.82;95.84;101442.28;10319672;28;20045;-67
2024/01/21 20:35:34;;;;;;;4.82;2.03;;;;;;;-5.78;96.46;101449.84;10311572;28;20537;-69
2024/01/21 20:40:36;;;;;;;0.77;0.75;;;;;;;-5.64;96.06;101439.59;10306595;28;20046;-69
2024/01/21 20:45:39;;;;;;;1.05;1.05;;;;;;;-5.61;96.28;101436.59;10323331;28;20047;-69
2024/01/21 20:50:41;;;;;;;2.30;1.52;;;;;;;-5.56;96.20;101435.13;10298978;28;20053;-69
2024/01/21 20:55:44;;;;;;;3.58;1.92;;;;;;;-5.52;96.20;101416.94;10326164;28;20038;-69
2024/01/21 21:00:47;;;;;;;1.27;1.27;;;;;;;-5.46;95.98;101416.31;10355609;28;20045;-67
2024/01/21 21:05:49;;;;;;;2.90;1.55;;;;;;;-5.38;96.15;101423.53;10326153;28;20073;-69
2024/01/21 21:10:51;;;;;;;6.40;2.78;;;;;;;-5.33;96.34;101418.56;10332717;28;20042;-68
2024/01/21 21:15:55;;;;;;;5.75;2.63;;;;;;;-5.27;96.12;101413.41;10330577;28;20058;-69
2024/01/21 21:20:57;;;;;;;6.85;2.70;;;;;;;-5.24;96.29;101402.38;10320723;28;20042;-68
2024/01/21 21:26:00;;;;;;;3.38;2.58;;;;;;;-5.19;96.14;101397.41;10330043;28;20043;-68
2024/01/21 21:31:06;;;;;;;6.57;3.08;;;;;;;-5.13;96.26;101395.09;10327095;28;20039;-69
2024/01/21 21:36:09;;;;;;;5.85;3.13;;;;;;;-5.08;96.31;101382.91;10327343;28;20044;-69
2024/01/21 21:41:11;;;;;;;6.45;2.95;;;;;;;-5.04;96.30;101365.50;10326134;28;20049;-68
2024/01/21 21:46:14;;;;;;;4.45;2.75;;;;;;;-5.03;96.75;101364.53;10326233;28;20142;-68
2024/01/21 21:51:17;;;;;;;8.10;3.40;;;;;;;-4.99;96.57;101365.06;10341500;28;20407;-69
2024/01/21 21:56:20;;;;;;;5.32;2.95;;;;;;;-4.97;96.89;101357.69;10326226;28;20054;-68
2024/01/21 22:01:23;;;;;;;6.15;3.03;;;;;;;-4.93;96.62;101359.88;10323596;28;20035;-70
2024/01/21 22:06:27;;;;;;;4.57;2.90;;;;;;;-4.86;97.06;101360.03;10309421;28;20054;-67
2024/01/21 22:11:29;;;;;;;5.22;2.70;;;;;;;-4.86;97.29;101357.38;10322728;28;20520;-67
2024/01/21 22:16:33;;;;;;;5.72;3.15;;;;;;;-4.80;97.30;101351.38;10323196;28;20047;-69
2024/01/21 22:21:35;;;;;;;4.85;3.00;;;;;;;-4.79;97.31;101349.53;10322771;28;20042;-68
2024/01/21 22:26:42;;;;;;;6.72;3.67;;;;;;;-4.75;97.57;101357.06;10321673;28;20061;-69
2024/01/21 22:31:45;;;;;;;5.50;2.90;;;;;;;-4.74;97.87;101345.38;10305934;28;20035;-67
2024/01/21 22:36:47;;;;;;;6.75;2.97;;;;;;;-4.76;97.89;101338.50;10317395;28;20429;-68
2024/01/21 22:41:50;;;;;;;5.43;3.28;;;;;;;-4.73;97.78;101347.03;10322259;28;20410;-67
2024/01/21 22:46:53;;;;;;;6.10;3.22;;;;;;;-4.70;97.63;101346.69;10320769;28;20129;-67
2024/01/21 22:51:56;;;;;;;8.10;3.42;;;;;;;-4.72;97.67;101324.63;10322532;28;20035;-67